sensor_id;sensor_type;location;lat;lon;timestamp;pressure;altitude;pressure_sealevel;temperature;humidity
63691;BME280;49837;57.280;27.070;2023-03-22T00:00:13;99931.94;;;0.43;100.0
63691;BME280;49837;57.280;27.070;2023-03-22T00:01:15;99931.05;;;0.43;100.0
63691;BME280;49837;57.280;27.070;2023-03-22T00:02:13;99933.51;;;0.45;100.0
63691;BME280;49837;57.280;27.070;2023-03-22T00:03:13;99934.66;;;0.48;100.0
63691;BME280;49837;57.280;27.070;2023-03-22T00:04:14;99933.53;;;0.47;100.0
63691;BME280;49837;57.280;27.070;2023-03-22T00:05:14;99928.53;;;0.48;100.0
63691;BME280;49837;57.280;27.070;2023-03-22T00:06:14;99930.73;;;0.47;100.0
63691;BME280;49837;57.280;27.070;2023-03-22T00:07:15;99930.17;;;0.49;100.0
63691;BME280;49837;57.280;27.070;2023-03-22T00:08:15;99937.47;;;0.48;100.0
63691;BME280;49837;57.280;27.070;2023-03-22T00:09:15;99933.09;;;0.46;100.0
63691;BME280;49837;57.280;27.070;2023-03-22T00:10:16;99931.3;;;0.45;100.0
63691;BME280;49837;57.280;27.070;2023-03-22T00:11:17;99930.39;;;0.43;100.0
63691;BME280;49837;57.280;27.070;2023-03-22T00:12:16;99929.12;;;0.42;100.0
63691;BME280;49837;57.280;27.070;2023-03-22T00:13:17;99933.24;;;0.43;100.0
63691;BME280;49837;57.280;27.070;2023-03-22T00:14:17;99928.06;;;0.42;100.0
63691;BME280;49837;57.280;27.070;2023-03-22T00:15:18;99927.76;;;0.44;100.0
63691;BME280;49837;57.280;27.070;2023-03-22T00:16:18;99926.86;;;0.44;100.0
63691;BME280;49837;57.280;27.070;2023-03-22T00:17:18;99924.17;;;0.48;100.0
63691;BME280;49837;57.280;27.070;2023-03-22T00:18:18;99917.6;;;0.49;100.0
63691;BME280;49837;57.280;27.070;2023-03-22T00:19:19;99913.31;;;0.46;100.0
63691;BME280;49837;57.280;27.070;2023-03-22T00:20:22;99913.73;;;0.46;100.0
63691;BME280;49837;57.280;27.070;2023-03-22T00:21:20;99913.52;;;0.49;100.0
63691;BME280;49837;57.280;27.070;2023-03-22T00:22:20;99910.04;;;0.47;100.0
63691;BME280;49837;57.280;27.070;2023-03-22T00:23:21;99911.52;;;0.43;100.0
63691;BME280;49837;57.280;27.070;2023-03-22T00:24:21;99905.67;;;0.44;100.0
63691;BME280;49837;57.280;27.070;2023-03-22T00:25:21;99909.2;;;0.41;100.0
63691;BME280;49837;57.280;27.070;2023-03-22T00:26:21;99908.14;;;0.42;100.0
63691;BME280;49837;57.280;27.070;2023-03-22T00:27:22;99905.5;;;0.41;100.0
63691;BME280;49837;57.280;27.070;2023-03-22T00:28:22;99903.72;;;0.43;100.0
63691;BME280;49837;57.280;27.070;2023-03-22T00:29:22;99899.35;;;0.42;100.0
63691;BME280;49837;57.280;27.070;2023-03-22T00:30:23;99896.91;;;0.35;100.0
63691;BME280;49837;57.280;27.070;2023-03-22T00:31:23;99899.36;;;0.34;100.0
63691;BME280;49837;57.280;27.070;2023-03-22T00:32:23;99900.53;;;0.34;100.0
63691;BME280;49837;57.280;27.070;2023-03-22T00:33:24;99902.97;;;0.32;100.0
63691;BME280;49837;57.280;27.070;2023-03-22T00:34:24;99905.69;;;0.32;100.0
63691;BME280;49837;57.280;27.070;2023-03-22T00:35:24;99901.0;;;0.3;100.0
63691;BME280;49837;57.280;27.070;2023-03-22T00:36:25;99899.8;;;0.34;100.0
63691;BME280;49837;57.280;27.070;2023-03-22T00:37:25;99903.74;;;0.37;100.0
63691;BME280;49837;57.280;27.070;2023-03-22T00:38:26;99901.73;;;0.32;100.0
63691;BME280;49837;57.280;27.070;2023-03-22T00:39:28;99898.77;;;0.32;100.0
63691;BME280;49837;57.280;27.070;2023-03-22T00:40:28;99900.45;;;0.34;100.0
63691;BME280;49837;57.280;27.070;2023-03-22T00:41:29;99897.66;;;0.34;100.0
63691;BME280;49837;57.280;27.070;2023-03-22T00:42:29;99899.57;;;0.38;100.0
63691;BME280;49837;57.280;27.070;2023-03-22T00:43:29;99900.55;;;0.38;100.0
63691;BME280;49837;57.280;27.070;2023-03-22T00:44:30;99901.31;;;0.38;100.0
63691;BME280;49837;57.280;27.070;2023-03-22T00:45:30;99905.72;;;0.36;100.0
63691;BME280;49837;57.280;27.070;2023-03-22T00:46:30;99905.62;;;0.35;100.0
63691;BME280;49837;57.280;27.070;2023-03-22T00:47:31;99915.23;;;0.38;100.0
63691;BME280;49837;57.280;27.070;2023-03-22T00:48:31;99911.59;;;0.35;100.0
63691;BME280;49837;57.280;27.070;2023-03-22T00:49:31;99909.16;;;0.38;100.0
63691;BME280;49837;57.280;27.070;2023-03-22T00:50:32;99909.03;;;0.39;100.0
63691;BME280;49837;57.280;27.070;2023-03-22T00:51:32;99908.38;;;0.39;100.0
63691;BME280;49837;57.280;27.070;2023-03-22T00:52:32;99907.27;;;0.37;100.0
63691;BME280;49837;57.280;27.070;2023-03-22T00:53:33;99909.06;;;0.36;100.0
63691;BME280;49837;57.280;27.070;2023-03-22T00:54:33;99905.88;;;0.35;100.0
63691;BME280;49837;57.280;27.070;2023-03-22T00:55:33;99907.83;;;0.36;100.0
63691;BME280;49837;57.280;27.070;2023-03-22T00:56:34;99905.96;;;0.36;100.0
63691;BME280;49837;57.280;27.070;2023-03-22T00:57:34;99906.92;;;0.33;100.0
63691;BME280;49837;57.280;27.070;2023-03-22T00:58:34;99908.23;;;0.31;100.0
63691;BME280;49837;57.280;27.070;2023-03-22T00:59:38;99903.7;;;0.32;100.0
63691;BME280;49837;57.280;27.070;2023-03-22T01:00:35;99905.16;;;0.29;100.0
63691;BME280;49837;57.280;27.070;2023-03-22T01:01:35;99910.73;;;0.29;100.0
63691;BME280;49837;57.280;27.070;2023-03-22T01:02:36;99901.72;;;0.31;100.0
63691;BME280;49837;57.280;27.070;2023-03-22T01:03:36;99906.35;;;0.33;100.0
63691;BME280;49837;57.280;27.070;2023-03-22T01:04:36;99903.88;;;0.33;100.0
63691;BME280;49837;57.280;27.070;2023-03-22T01:05:37;99904.62;;;0.31;100.0
63691;BME280;49837;57.280;27.070;2023-03-22T01:06:37;99904.19;;;0.29;100.0
63691;BME280;49837;57.280;27.070;2023-03-22T01:07:38;99908.44;;;0.27;100.0
63691;BME280;49837;57.280;27.070;2023-03-22T01:08:38;99903.8;;;0.24;100.0
63691;BME280;49837;57.280;27.070;2023-03-22T01:09:38;99904.61;;;0.22;100.0
63691;BME280;49837;57.280;27.070;2023-03-22T01:10:40;99900.72;;;0.26;100.0
63691;BME280;49837;57.280;27.070;2023-03-22T01:11:40;99905.55;;;0.25;100.0
63691;BME280;49837;57.280;27.070;2023-03-22T01:12:39;99909.89;;;0.26;100.0
63691;BME280;49837;57.280;27.070;2023-03-22T01:13:40;99908.62;;;0.22;100.0
63691;BME280;49837;57.280;27.070;2023-03-22T01:14:41;99911.29;;;0.26;100.0
63691;BME280;49837;57.280;27.070;2023-03-22T01:15:40;99913.03;;;0.28;100.0
63691;BME280;49837;57.280;27.070;2023-03-22T01:16:41;99910.28;;;0.24;100.0
63691;BME280;49837;57.280;27.070;2023-03-22T01:17:41;99913.31;;;0.24;100.0
63691;BME280;49837;57.280;27.070;2023-03-22T01:18:42;99917.69;;;0.25;100.0
63691;BME280;49837;57.280;27.070;2023-03-22T01:19:42;99913.97;;;0.23;100.0
63691;BME280;49837;57.280;27.070;2023-03-22T01:20:42;99915.52;;;0.22;100.0
63691;BME280;49837;57.280;27.070;2023-03-22T01:21:42;99919.08;;;0.25;100.0
63691;BME280;49837;57.280;27.070;2023-03-22T01:22:43;99913.66;;;0.24;100.0
63691;BME280;49837;57.280;27.070;2023-03-22T01:23:43;99915.95;;;0.24;100.0
63691;BME280;49837;57.280;27.070;2023-03-22T01:24:43;99916.36;;;0.24;100.0
63691;BME280;49837;57.280;27.070;2023-03-22T01:25:44;99911.62;;;0.26;100.0
63691;BME280;49837;57.280;27.070;2023-03-22T01:26:44;99913.75;;;0.25;100.0
63691;BME280;49837;57.280;27.070;2023-03-22T01:27:44;99915.03;;;0.22;100.0
63691;BME280;49837;57.280;27.070;2023-03-22T01:28:45;99913.05;;;0.18;100.0
63691;BME280;49837;57.280;27.070;2023-03-22T01:29:45;99913.17;;;0.17;100.0
63691;BME280;49837;57.280;27.070;2023-03-22T01:30:45;99916.71;;;0.15;100.0
63691;BME280;49837;57.280;27.070;2023-03-22T01:31:46;99915.23;;;0.18;100.0
63691;BME280;49837;57.280;27.070;2023-03-22T01:32:46;99915.29;;;0.15;100.0
63691;BME280;49837;57.280;27.070;2023-03-22T01:33:46;99915.02;;;0.18;100.0
63691;BME280;49837;57.280;27.070;2023-03-22T01:34:47;99913.48;;;0.13;100.0
63691;BME280;49837;57.280;27.070;2023-03-22T01:35:47;99916.03;;;0.14;100.0
63691;BME280;49837;57.280;27.070;2023-03-22T01:36:48;99914.38;;;0.12;100.0
63691;BME280;49837;57.280;27.070;2023-03-22T01:37:48;99908.8;;;0.13;100.0
63691;BME280;49837;57.280;27.070;2023-03-22T01:38:48;99908.55;;;0.13;100.0
63691;BME280;49837;57.280;27.070;2023-03-22T01:39:48;99904.2;;;0.11;100.0
63691;BME280;49837;57.280;27.070;2023-03-22T01:40:49;99905.77;;;0.12;100.0
63691;BME280;49837;57.280;27.070;2023-03-22T01:41:49;99901.09;;;0.13;100.0
63691;BME280;49837;57.280;27.070;2023-03-22T01:42:52;99895.2;;;0.12;100.0
63691;BME280;49837;57.280;27.070;2023-03-22T01:45:56;99893.48;;;0.16;100.0
63691;BME280;49837;57.280;27.070;2023-03-22T01:46:56;99891.37;;;0.18;100.0
63691;BME280;49837;57.280;27.070;2023-03-22T01:49:00;99892.03;;;0.16;100.0
63691;BME280;49837;57.280;27.070;2023-03-22T01:49:59;99889.95;;;0.13;100.0
63691;BME280;49837;57.280;27.070;2023-03-22T01:51:03;99887.47;;;0.12;100.0
63691;BME280;49837;57.280;27.070;2023-03-22T01:53:06;99889.58;;;0.09;100.0
63691;BME280;49837;57.280;27.070;2023-03-22T01:54:08;99887.41;;;0.04;100.0
63691;BME280;49837;57.280;27.070;2023-03-22T01:55:07;99891.84;;;0.05;100.0
63691;BME280;49837;57.280;27.070;2023-03-22T01:56:07;99882.64;;;0.03;100.0
63691;BME280;49837;57.280;27.070;2023-03-22T01:57:07;99885.29;;;0.05;100.0
63691;BME280;49837;57.280;27.070;2023-03-22T01:58:07;99883.21;;;0.0;100.0
63691;BME280;49837;57.280;27.070;2023-03-22T01:59:10;99881.72;;;0.01;100.0
63691;BME280;49837;57.280;27.070;2023-03-22T02:00:11;99879.7;;;0.05;100.0
63691;BME280;49837;57.280;27.070;2023-03-22T02:01:10;99875.65;;;0.09;100.0
63691;BME280;49837;57.280;27.070;2023-03-22T02:02:10;99875.58;;;0.1;100.0
63691;BME280;49837;57.280;27.070;2023-03-22T02:03:11;99874.8;;;0.07;100.0
63691;BME280;49837;57.280;27.070;2023-03-22T02:04:14;99881.62;;;0.09;100.0
63691;BME280;49837;57.280;27.070;2023-03-22T02:05:12;99880.88;;;0.07;100.0
63691;BME280;49837;57.280;27.070;2023-03-22T02:06:13;99878.56;;;0.05;100.0
63691;BME280;49837;57.280;27.070;2023-03-22T02:07:14;99876.44;;;0.05;100.0
63691;BME280;49837;57.280;27.070;2023-03-22T02:08:13;99879.28;;;0.01;100.0
63691;BME280;49837;57.280;27.070;2023-03-22T02:09:15;99874.75;;;0.01;100.0
63691;BME280;49837;57.280;27.070;2023-03-22T02:10:20;99883.06;;;0.02;100.0
63691;BME280;49837;57.280;27.070;2023-03-22T02:15:56;99876.34;;;0.04;100.0
63691;BME280;49837;57.280;27.070;2023-03-22T02:18:09;99877.5;;;0.04;100.0
63691;BME280;49837;57.280;27.070;2023-03-22T02:34:37;99861.44;;;-0.06;100.0
63691;BME280;49837;57.280;27.070;2023-03-22T02:39:53;99855.03;;;-0.09;100.0
63691;BME280;49837;57.280;27.070;2023-03-22T02:48:17;99857.61;;;-0.02;100.0
63691;BME280;49837;57.280;27.070;2023-03-22T02:49:09;99853.2;;;-0.02;100.0
63691;BME280;49837;57.280;27.070;2023-03-22T02:58:36;99861.8;;;-0.02;100.0
63691;BME280;49837;57.280;27.070;2023-03-22T02:59:30;99866.07;;;-0.03;100.0
63691;BME280;49837;57.280;27.070;2023-03-22T03:00:30;99867.26;;;-0.05;100.0
63691;BME280;49837;57.280;27.070;2023-03-22T03:01:40;99866.62;;;-0.04;100.0
63691;BME280;49837;57.280;27.070;2023-03-22T03:02:35;99867.18;;;-0.06;100.0
63691;BME280;49837;57.280;27.070;2023-03-22T03:03:36;99867.12;;;-0.02;100.0
63691;BME280;49837;57.280;27.070;2023-03-22T03:04:38;99867.84;;;-0.05;100.0
63691;BME280;49837;57.280;27.070;2023-03-22T03:05:46;99864.32;;;-0.03;100.0
63691;BME280;49837;57.280;27.070;2023-03-22T03:06:43;99867.86;;;-0.03;100.0
63691;BME280;49837;57.280;27.070;2023-03-22T03:07:49;99865.45;;;-0.05;100.0
63691;BME280;49837;57.280;27.070;2023-03-22T03:08:43;99867.08;;;-0.07;100.0
63691;BME280;49837;57.280;27.070;2023-03-22T03:09:44;99866.38;;;-0.06;100.0
63691;BME280;49837;57.280;27.070;2023-03-22T03:10:44;99869.83;;;-0.04;100.0
63691;BME280;49837;57.280;27.070;2023-03-22T03:11:49;99866.7;;;-0.05;100.0
63691;BME280;49837;57.280;27.070;2023-03-22T03:12:47;99871.31;;;-0.03;100.0
63691;BME280;49837;57.280;27.070;2023-03-22T03:13:48;99868.7;;;-0.03;100.0
63691;BME280;49837;57.280;27.070;2023-03-22T03:14:48;99871.77;;;-0.06;100.0
63691;BME280;49837;57.280;27.070;2023-03-22T03:15:53;99871.29;;;-0.05;100.0
63691;BME280;49837;57.280;27.070;2023-03-22T03:24:31;99867.22;;;-0.02;100.0
63691;BME280;49837;57.280;27.070;2023-03-22T03:32:34;99866.9;;;-0.09;100.0
63691;BME280;49837;57.280;27.070;2023-03-22T03:33:37;99865.46;;;-0.06;100.0
63691;BME280;49837;57.280;27.070;2023-03-22T03:34:49;99862.77;;;-0.05;100.0
63691;BME280;49837;57.280;27.070;2023-03-22T03:36:43;99863.91;;;-0.05;100.0
63691;BME280;49837;57.280;27.070;2023-03-22T03:38:47;99864.16;;;-0.03;100.0
63691;BME280;49837;57.280;27.070;2023-03-22T03:40:53;99865.08;;;-0.04;100.0
63691;BME280;49837;57.280;27.070;2023-03-22T03:41:52;99863.33;;;-0.04;100.0
63691;BME280;49837;57.280;27.070;2023-03-22T03:42:53;99862.98;;;-0.08;100.0
63691;BME280;49837;57.280;27.070;2023-03-22T03:43:53;99861.03;;;-0.07;100.0
63691;BME280;49837;57.280;27.070;2023-03-22T03:44:54;99859.86;;;-0.09;100.0
63691;BME280;49837;57.280;27.070;2023-03-22T03:45:54;99859.73;;;-0.05;100.0
63691;BME280;49837;57.280;27.070;2023-03-22T03:46:54;99857.92;;;-0.03;100.0
63691;BME280;49837;57.280;27.070;2023-03-22T03:47:57;99858.97;;;-0.07;100.0
63691;BME280;49837;57.280;27.070;2023-03-22T03:48:57;99857.91;;;-0.05;100.0
63691;BME280;49837;57.280;27.070;2023-03-22T03:49:56;99854.76;;;-0.1;100.0
63691;BME280;49837;57.280;27.070;2023-03-22T03:50:57;99851.83;;;-0.08;100.0
63691;BME280;49837;57.280;27.070;2023-03-22T03:51:58;99856.72;;;-0.1;100.0
63691;BME280;49837;57.280;27.070;2023-03-22T03:52:58;99853.62;;;-0.12;100.0
63691;BME280;49837;57.280;27.070;2023-03-22T03:53:58;99857.17;;;-0.07;99.98
63691;BME280;49837;57.280;27.070;2023-03-22T03:54:58;99857.05;;;-0.04;99.79
63691;BME280;49837;57.280;27.070;2023-03-22T03:55:58;99857.2;;;-0.03;99.57
63691;BME280;49837;57.280;27.070;2023-03-22T03:56:59;99859.59;;;-0.02;99.4
63691;BME280;49837;57.280;27.070;2023-03-22T03:58:00;99860.23;;;0.01;99.22
63691;BME280;49837;57.280;27.070;2023-03-22T03:59:00;99858.88;;;-0.01;99.22
63691;BME280;49837;57.280;27.070;2023-03-22T04:00:00;99861.17;;;0.0;99.21
63691;BME280;49837;57.280;27.070;2023-03-22T04:01:01;99860.41;;;0.01;99.21
63691;BME280;49837;57.280;27.070;2023-03-22T04:02:01;99862.64;;;-0.01;99.29
63691;BME280;49837;57.280;27.070;2023-03-22T04:03:02;99858.01;;;-0.06;99.4
63691;BME280;49837;57.280;27.070;2023-03-22T04:04:02;99860.78;;;-0.07;99.54
63691;BME280;49837;57.280;27.070;2023-03-22T04:05:03;99857.77;;;-0.02;99.55
63691;BME280;49837;57.280;27.070;2023-03-22T04:06:03;99853.52;;;-0.01;99.44
63691;BME280;49837;57.280;27.070;2023-03-22T04:07:05;99846.06;;;-0.03;99.46
63691;BME280;49837;57.280;27.070;2023-03-22T04:08:03;99845.07;;;-0.04;99.42
63691;BME280;49837;57.280;27.070;2023-03-22T04:09:04;99849.88;;;-0.07;99.45
63691;BME280;49837;57.280;27.070;2023-03-22T04:10:05;99853.66;;;-0.04;99.61
63691;BME280;49837;57.280;27.070;2023-03-22T04:11:04;99853.29;;;-0.02;99.5
63691;BME280;49837;57.280;27.070;2023-03-22T04:12:05;99847.06;;;-0.02;99.27
63691;BME280;49837;57.280;27.070;2023-03-22T04:13:05;99847.85;;;0.01;99.13
63691;BME280;49837;57.280;27.070;2023-03-22T04:14:05;99843.35;;;-0.01;99.04
63691;BME280;49837;57.280;27.070;2023-03-22T04:15:06;99849.2;;;-0.01;99.15
63691;BME280;49837;57.280;27.070;2023-03-22T04:16:06;99851.35;;;-0.07;99.2
63691;BME280;49837;57.280;27.070;2023-03-22T04:17:07;99851.67;;;-0.07;99.31
63691;BME280;49837;57.280;27.070;2023-03-22T04:18:07;99848.02;;;-0.03;99.29
63691;BME280;49837;57.280;27.070;2023-03-22T04:19:07;99858.51;;;-0.05;99.21
63691;BME280;49837;57.280;27.070;2023-03-22T04:20:09;99855.33;;;-0.01;99.15
63691;BME280;49837;57.280;27.070;2023-03-22T04:21:08;99859.77;;;-0.02;98.95
63691;BME280;49837;57.280;27.070;2023-03-22T04:22:08;99863.05;;;-0.01;98.92
63691;BME280;49837;57.280;27.070;2023-03-22T04:23:08;99860.06;;;-0.02;98.8
63691;BME280;49837;57.280;27.070;2023-03-22T04:24:09;99855.93;;;0.0;98.78
63691;BME280;49837;57.280;27.070;2023-03-22T04:25:12;99852.38;;;0.0;98.64
63691;BME280;49837;57.280;27.070;2023-03-22T04:26:10;99852.31;;;0.0;98.48
63691;BME280;49837;57.280;27.070;2023-03-22T04:27:10;99848.53;;;0.04;98.5
63691;BME280;49837;57.280;27.070;2023-03-22T04:28:11;99849.59;;;0.0;98.33
63691;BME280;49837;57.280;27.070;2023-03-22T04:29:11;99847.52;;;0.01;98.39
63691;BME280;49837;57.280;27.070;2023-03-22T04:30:13;99850.58;;;0.01;98.25
63691;BME280;49837;57.280;27.070;2023-03-22T04:31:12;99844.26;;;0.01;98.24
63691;BME280;49837;57.280;27.070;2023-03-22T04:32:13;99847.23;;;0.0;98.19
63691;BME280;49837;57.280;27.070;2023-03-22T04:33:12;99850.69;;;0.0;97.92
63691;BME280;49837;57.280;27.070;2023-03-22T04:34:13;99848.3;;;0.02;97.91
63691;BME280;49837;57.280;27.070;2023-03-22T04:35:14;99848.08;;;0.07;97.87
63691;BME280;49837;57.280;27.070;2023-03-22T04:36:13;99843.75;;;0.08;97.86
63691;BME280;49837;57.280;27.070;2023-03-22T04:37:14;99845.4;;;0.09;98.03
63691;BME280;49837;57.280;27.070;2023-03-22T04:38:14;99845.62;;;0.09;98.16
63691;BME280;49837;57.280;27.070;2023-03-22T04:39:14;99845.64;;;0.09;98.01
63691;BME280;49837;57.280;27.070;2023-03-22T04:40:15;99847.51;;;0.06;97.78
63691;BME280;49837;57.280;27.070;2023-03-22T04:41:17;99846.23;;;0.04;97.75
63691;BME280;49837;57.280;27.070;2023-03-22T04:42:15;99846.73;;;0.05;98.0
63691;BME280;49837;57.280;27.070;2023-03-22T04:43:16;99844.12;;;0.05;97.8
63691;BME280;49837;57.280;27.070;2023-03-22T04:44:16;99844.37;;;0.03;97.67
63691;BME280;49837;57.280;27.070;2023-03-22T04:45:17;99848.34;;;0.07;97.78
63691;BME280;49837;57.280;27.070;2023-03-22T04:46:17;99844.88;;;0.07;97.95
63691;BME280;49837;57.280;27.070;2023-03-22T04:47:17;99845.61;;;0.06;98.14
63691;BME280;49837;57.280;27.070;2023-03-22T04:48:17;99847.62;;;0.03;97.97
63691;BME280;49837;57.280;27.070;2023-03-22T04:49:18;99847.6;;;0.09;97.78
63691;BME280;49837;57.280;27.070;2023-03-22T04:50:18;99845.31;;;0.11;97.4
63691;BME280;49837;57.280;27.070;2023-03-22T04:51:18;99845.45;;;0.07;97.22
63691;BME280;49837;57.280;27.070;2023-03-22T04:52:19;99843.81;;;0.08;97.36
63691;BME280;49837;57.280;27.070;2023-03-22T04:53:19;99843.8;;;0.06;97.65
63691;BME280;49837;57.280;27.070;2023-03-22T04:54:20;99845.44;;;0.06;97.61
63691;BME280;49837;57.280;27.070;2023-03-22T04:55:20;99848.33;;;0.06;97.5
63691;BME280;49837;57.280;27.070;2023-03-22T04:56:21;99852.02;;;0.07;97.35
63691;BME280;49837;57.280;27.070;2023-03-22T04:57:20;99849.73;;;0.09;97.35
63691;BME280;49837;57.280;27.070;2023-03-22T04:58:22;99850.5;;;0.13;97.2
63691;BME280;49837;57.280;27.070;2023-03-22T04:59:21;99850.84;;;0.17;97.04
63691;BME280;49837;57.280;27.070;2023-03-22T05:00:22;99851.02;;;0.19;96.69
63691;BME280;49837;57.280;27.070;2023-03-22T05:01:22;99850.25;;;0.23;96.49
63691;BME280;49837;57.280;27.070;2023-03-22T05:02:22;99857.53;;;0.2;96.46
63691;BME280;49837;57.280;27.070;2023-03-22T05:03:23;99854.4;;;0.2;96.73
63691;BME280;49837;57.280;27.070;2023-03-22T05:04:23;99851.31;;;0.14;97.05
63691;BME280;49837;57.280;27.070;2023-03-22T05:05:23;99848.1;;;0.11;97.16
63691;BME280;49837;57.280;27.070;2023-03-22T05:06:23;99851.25;;;0.14;97.16
63691;BME280;49837;57.280;27.070;2023-03-22T05:07:24;99850.28;;;0.18;97.07
63691;BME280;49837;57.280;27.070;2023-03-22T05:08:26;99852.28;;;0.19;97.12
63691;BME280;49837;57.280;27.070;2023-03-22T05:09:25;99854.23;;;0.17;97.04
63691;BME280;49837;57.280;27.070;2023-03-22T05:10:25;99850.45;;;0.18;96.99
63691;BME280;49837;57.280;27.070;2023-03-22T05:11:25;99850.7;;;0.2;96.87
63691;BME280;49837;57.280;27.070;2023-03-22T05:12:26;99853.02;;;0.2;96.52
63691;BME280;49837;57.280;27.070;2023-03-22T05:13:26;99850.3;;;0.19;96.37
63691;BME280;49837;57.280;27.070;2023-03-22T05:14:26;99849.97;;;0.2;96.06
63691;BME280;49837;57.280;27.070;2023-03-22T05:15:27;99847.72;;;0.25;95.98
63691;BME280;49837;57.280;27.070;2023-03-22T05:16:27;99851.25;;;0.26;95.95
63691;BME280;49837;57.280;27.070;2023-03-22T05:17:27;99851.72;;;0.24;95.85
63691;BME280;49837;57.280;27.070;2023-03-22T05:18:28;99851.26;;;0.28;95.92
63691;BME280;49837;57.280;27.070;2023-03-22T05:19:28;99848.66;;;0.3;95.78
63691;BME280;49837;57.280;27.070;2023-03-22T05:20:28;99846.05;;;0.32;95.72
63691;BME280;49837;57.280;27.070;2023-03-22T05:21:29;99845.05;;;0.31;95.66
63691;BME280;49837;57.280;27.070;2023-03-22T05:22:29;99842.27;;;0.31;95.54
63691;BME280;49837;57.280;27.070;2023-03-22T05:23:29;99839.97;;;0.31;95.62
63691;BME280;49837;57.280;27.070;2023-03-22T05:24:30;99837.33;;;0.28;95.76
63691;BME280;49837;57.280;27.070;2023-03-22T05:25:30;99832.7;;;0.23;95.96
63691;BME280;49837;57.280;27.070;2023-03-22T05:26:30;99834.41;;;0.22;96.23
63691;BME280;49837;57.280;27.070;2023-03-22T05:27:31;99832.24;;;0.28;96.33
63691;BME280;49837;57.280;27.070;2023-03-22T05:28:31;99830.83;;;0.26;96.4
63691;BME280;49837;57.280;27.070;2023-03-22T05:29:31;99832.55;;;0.25;96.28
63691;BME280;49837;57.280;27.070;2023-03-22T05:30:32;99831.62;;;0.23;96.31
63691;BME280;49837;57.280;27.070;2023-03-22T05:31:32;99833.26;;;0.24;96.37
63691;BME280;49837;57.280;27.070;2023-03-22T05:32:32;99832.48;;;0.29;96.5
63691;BME280;49837;57.280;27.070;2023-03-22T05:33:33;99826.8;;;0.36;96.31
63691;BME280;49837;57.280;27.070;2023-03-22T05:34:33;99824.89;;;0.37;95.99
63691;BME280;49837;57.280;27.070;2023-03-22T05:35:35;99824.55;;;0.31;95.82
63691;BME280;49837;57.280;27.070;2023-03-22T05:36:34;99819.8;;;0.31;95.93
63691;BME280;49837;57.280;27.070;2023-03-22T05:37:34;99821.27;;;0.31;95.95
63691;BME280;49837;57.280;27.070;2023-03-22T05:38:35;99819.2;;;0.31;95.73
63691;BME280;49837;57.280;27.070;2023-03-22T05:39:35;99819.16;;;0.33;95.65
63691;BME280;49837;57.280;27.070;2023-03-22T05:40:35;99819.98;;;0.36;95.83
63691;BME280;49837;57.280;27.070;2023-03-22T05:41:36;99817.03;;;0.36;95.62
63691;BME280;49837;57.280;27.070;2023-03-22T05:42:36;99821.23;;;0.39;95.4
63691;BME280;49837;57.280;27.070;2023-03-22T05:43:36;99821.7;;;0.37;95.21
63691;BME280;49837;57.280;27.070;2023-03-22T05:44:37;99815.89;;;0.4;95.16
63691;BME280;49837;57.280;27.070;2023-03-22T05:45:37;99818.62;;;0.42;95.07
63691;BME280;49837;57.280;27.070;2023-03-22T05:46:37;99817.03;;;0.4;94.7
63691;BME280;49837;57.280;27.070;2023-03-22T05:47:38;99813.58;;;0.38;94.71
63691;BME280;49837;57.280;27.070;2023-03-22T05:48:38;99815.7;;;0.38;94.94
63691;BME280;49837;57.280;27.070;2023-03-22T05:49:38;99815.85;;;0.43;94.96
63691;BME280;49837;57.280;27.070;2023-03-22T05:50:39;99815.11;;;0.45;95.06
63691;BME280;49837;57.280;27.070;2023-03-22T05:51:39;99815.34;;;0.44;95.03
63691;BME280;49837;57.280;27.070;2023-03-22T05:52:39;99815.38;;;0.49;95.03
63691;BME280;49837;57.280;27.070;2023-03-22T05:53:40;99818.35;;;0.55;94.94
63691;BME280;49837;57.280;27.070;2023-03-22T05:54:40;99813.09;;;0.54;94.86
63691;BME280;49837;57.280;27.070;2023-03-22T05:55:40;99815.88;;;0.54;94.88
63691;BME280;49837;57.280;27.070;2023-03-22T05:56:41;99813.98;;;0.48;94.86
63691;BME280;49837;57.280;27.070;2023-03-22T05:57:41;99814.7;;;0.48;94.91
63691;BME280;49837;57.280;27.070;2023-03-22T05:58:41;99816.92;;;0.46;95.07
63691;BME280;49837;57.280;27.070;2023-03-22T05:59:42;99819.23;;;0.5;94.7
63691;BME280;49837;57.280;27.070;2023-03-22T06:00:42;99819.44;;;0.55;94.53
63691;BME280;49837;57.280;27.070;2023-03-22T06:01:42;99820.27;;;0.55;94.49
63691;BME280;49837;57.280;27.070;2023-03-22T06:02:45;99821.62;;;0.54;94.3
63691;BME280;49837;57.280;27.070;2023-03-22T06:03:43;99818.67;;;0.54;94.24
63691;BME280;49837;57.280;27.070;2023-03-22T06:04:43;99821.57;;;0.54;94.42
63691;BME280;49837;57.280;27.070;2023-03-22T06:05:44;99818.8;;;0.49;94.48
63691;BME280;49837;57.280;27.070;2023-03-22T06:06:44;99813.41;;;0.5;94.48
63691;BME280;49837;57.280;27.070;2023-03-22T06:07:44;99815.73;;;0.53;94.28
63691;BME280;49837;57.280;27.070;2023-03-22T06:08:45;99812.76;;;0.5;94.2
63691;BME280;49837;57.280;27.070;2023-03-22T06:09:45;99811.25;;;0.45;94.42
63691;BME280;49837;57.280;27.070;2023-03-22T06:10:48;99810.95;;;0.53;94.53
63691;BME280;49837;57.280;27.070;2023-03-22T06:11:46;99813.78;;;0.6;94.39
63691;BME280;49837;57.280;27.070;2023-03-22T06:12:46;99815.78;;;0.67;94.02
63691;BME280;49837;57.280;27.070;2023-03-22T06:13:46;99806.85;;;0.66;93.58
63691;BME280;49837;57.280;27.070;2023-03-22T06:14:47;99813.16;;;0.66;93.5
63691;BME280;49837;57.280;27.070;2023-03-22T06:15:47;99810.32;;;0.7;93.48
63691;BME280;49837;57.280;27.070;2023-03-22T06:16:48;99810.23;;;0.74;93.64
63691;BME280;49837;57.280;27.070;2023-03-22T06:17:48;99810.17;;;0.77;93.17
63691;BME280;49837;57.280;27.070;2023-03-22T06:18:48;99810.72;;;0.73;93.04
63691;BME280;49837;57.280;27.070;2023-03-22T06:19:49;99809.7;;;0.8;93.21
63691;BME280;49837;57.280;27.070;2023-03-22T06:20:49;99808.92;;;0.74;93.21
63691;BME280;49837;57.280;27.070;2023-03-22T06:21:50;99809.16;;;0.69;93.49
63691;BME280;49837;57.280;27.070;2023-03-22T06:22:50;99811.73;;;0.76;93.48